sensor_id;sensor_type;location;lat;lon;timestamp;P1;durP1;ratioP1;P2;durP2;ratioP2
47531;SDS011;33273;52.254;7.988;2023-05-08T00:01:45;14.77;;;11.07;;
47531;SDS011;33273;52.254;7.988;2023-05-08T00:04:11;14.90;;;11.07;;
47531;SDS011;33273;52.254;7.988;2023-05-08T00:06:37;14.63;;;10.05;;
47531;SDS011;33273;52.254;7.988;2023-05-08T00:09:03;16.90;;;11.83;;
47531;SDS011;33273;52.254;7.988;2023-05-08T00:11:29;14.20;;;10.20;;
47531;SDS011;33273;52.254;7.988;2023-05-08T00:13:54;13.50;;;10.90;;
47531;SDS011;33273;52.254;7.988;2023-05-08T00:16:21;14.70;;;11.27;;
47531;SDS011;33273;52.254;7.988;2023-05-08T00:18:47;15.17;;;10.97;;
47531;SDS011;33273;52.254;7.988;2023-05-08T00:21:12;14.43;;;10.70;;
47531;SDS011;33273;52.254;7.988;2023-05-08T00:23:38;13.45;;;10.52;;
47531;SDS011;33273;52.254;7.988;2023-05-08T00:26:05;13.50;;;10.77;;
47531;SDS011;33273;52.254;7.988;2023-05-08T00:28:31;15.03;;;10.73;;
47531;SDS011;33273;52.254;7.988;2023-05-08T00:30:58;15.50;;;11.10;;
47531;SDS011;33273;52.254;7.988;2023-05-08T00:33:26;15.35;;;10.30;;
47531;SDS011;33273;52.254;7.988;2023-05-08T00:35:57;14.70;;;10.93;;
47531;SDS011;33273;52.254;7.988;2023-05-08T00:38:30;13.68;;;9.38;;
47531;SDS011;33273;52.254;7.988;2023-05-08T00:40:57;14.68;;;10.20;;
47531;SDS011;33273;52.254;7.988;2023-05-08T00:43:23;12.90;;;9.85;;
47531;SDS011;33273;52.254;7.988;2023-05-08T00:45:53;13.60;;;9.75;;
47531;SDS011;33273;52.254;7.988;2023-05-08T00:48:23;14.90;;;10.20;;
47531;SDS011;33273;52.254;7.988;2023-05-08T00:50:52;14.18;;;10.52;;
47531;SDS011;33273;52.254;7.988;2023-05-08T00:53:20;14.13;;;10.43;;
47531;SDS011;33273;52.254;7.988;2023-05-08T00:55:47;13.25;;;9.77;;
47531;SDS011;33273;52.254;7.988;2023-05-08T00:58:13;13.98;;;10.30;;
47531;SDS011;33273;52.254;7.988;2023-05-08T01:00:40;14.05;;;10.40;;
47531;SDS011;33273;52.254;7.988;2023-05-08T01:03:08;13.20;;;10.07;;
47531;SDS011;33273;52.254;7.988;2023-05-08T01:05:34;15.15;;;10.13;;
47531;SDS011;33273;52.254;7.988;2023-05-08T01:08:01;14.70;;;9.65;;
47531;SDS011;33273;52.254;7.988;2023-05-08T01:10:31;13.23;;;9.10;;
47531;SDS011;33273;52.254;7.988;2023-05-08T01:19:30;15.05;;;9.45;;
47531;SDS011;33273;52.254;7.988;2023-05-08T01:27:54;15.77;;;10.43;;
47531;SDS011;33273;52.254;7.988;2023-05-08T01:33:34;12.93;;;9.70;;
47531;SDS011;33273;52.254;7.988;2023-05-08T01:41:55;12.88;;;9.82;;
47531;SDS011;33273;52.254;7.988;2023-05-08T01:44:34;11.82;;;9.27;;
47531;SDS011;33273;52.254;7.988;2023-05-08T01:47:13;11.57;;;9.05;;
47531;SDS011;33273;52.254;7.988;2023-05-08T01:49:46;12.88;;;9.15;;
47531;SDS011;33273;52.254;7.988;2023-05-08T01:52:17;12.60;;;9.52;;
47531;SDS011;33273;52.254;7.988;2023-05-08T01:54:49;12.00;;;8.90;;
47531;SDS011;33273;52.254;7.988;2023-05-08T01:57:27;12.35;;;8.60;;
47531;SDS011;33273;52.254;7.988;2023-05-08T01:59:55;11.07;;;8.60;;
47531;SDS011;33273;52.254;7.988;2023-05-08T02:02:24;10.73;;;8.43;;
47531;SDS011;33273;52.254;7.988;2023-05-08T02:04:51;11.82;;;9.23;;
47531;SDS011;33273;52.254;7.988;2023-05-08T02:07:20;13.43;;;9.93;;
47531;SDS011;33273;52.254;7.988;2023-05-08T02:09:48;11.10;;;7.82;;
47531;SDS011;33273;52.254;7.988;2023-05-08T02:12:15;15.73;;;9.23;;
47531;SDS011;33273;52.254;7.988;2023-05-08T02:14:43;13.38;;;9.82;;
47531;SDS011;33273;52.254;7.988;2023-05-08T02:17:13;11.80;;;8.50;;
47531;SDS011;33273;52.254;7.988;2023-05-08T02:19:41;11.80;;;8.68;;
47531;SDS011;33273;52.254;7.988;2023-05-08T02:22:08;12.43;;;8.80;;
47531;SDS011;33273;52.254;7.988;2023-05-08T02:24:35;11.02;;;8.73;;
47531;SDS011;33273;52.254;7.988;2023-05-08T02:27:02;11.27;;;8.63;;
47531;SDS011;33273;52.254;7.988;2023-05-08T02:29:30;11.15;;;8.95;;
47531;SDS011;33273;52.254;7.988;2023-05-08T02:34:27;11.75;;;8.60;;
47531;SDS011;33273;52.254;7.988;2023-05-08T02:36:54;10.98;;;8.20;;
47531;SDS011;33273;52.254;7.988;2023-05-08T02:39:25;11.25;;;8.30;;
47531;SDS011;33273;52.254;7.988;2023-05-08T02:41:55;11.23;;;8.40;;
47531;SDS011;33273;52.254;7.988;2023-05-08T02:44:23;13.55;;;8.82;;
47531;SDS011;33273;52.254;7.988;2023-05-08T02:49:36;10.52;;;8.35;;
47531;SDS011;33273;52.254;7.988;2023-05-08T02:52:30;11.68;;;8.60;;
47531;SDS011;33273;52.254;7.988;2023-05-08T02:57:59;9.35;;;7.88;;
47531;SDS011;33273;52.254;7.988;2023-05-08T03:00:44;11.57;;;9.23;;
47531;SDS011;33273;52.254;7.988;2023-05-08T03:03:21;10.80;;;7.97;;
47531;SDS011;33273;52.254;7.988;2023-05-08T03:05:55;11.45;;;8.82;;
47531;SDS011;33273;52.254;7.988;2023-05-08T03:08:31;10.75;;;8.15;;
47531;SDS011;33273;52.254;7.988;2023-05-08T03:11:04;12.65;;;7.85;;
47531;SDS011;33273;52.254;7.988;2023-05-08T03:13:37;10.85;;;8.18;;
47531;SDS011;33273;52.254;7.988;2023-05-08T03:16:07;10.45;;;8.15;;
47531;SDS011;33273;52.254;7.988;2023-05-08T03:18:45;11.68;;;8.48;;
47531;SDS011;33273;52.254;7.988;2023-05-08T03:21:19;10.90;;;8.25;;
47531;SDS011;33273;52.254;7.988;2023-05-08T03:23:47;11.73;;;8.82;;
47531;SDS011;33273;52.254;7.988;2023-05-08T03:26:16;11.20;;;8.80;;
47531;SDS011;33273;52.254;7.988;2023-05-08T03:28:47;13.25;;;8.98;;
47531;SDS011;33273;52.254;7.988;2023-05-08T03:31:16;11.70;;;8.63;;
47531;SDS011;33273;52.254;7.988;2023-05-08T03:33:47;11.23;;;8.32;;
47531;SDS011;33273;52.254;7.988;2023-05-08T03:36:16;11.77;;;8.52;;
47531;SDS011;33273;52.254;7.988;2023-05-08T03:38:43;11.32;;;8.43;;
47531;SDS011;33273;52.254;7.988;2023-05-08T03:41:09;13.93;;;9.30;;
47531;SDS011;33273;52.254;7.988;2023-05-08T03:43:38;11.85;;;9.35;;
47531;SDS011;33273;52.254;7.988;2023-05-08T03:46:05;12.38;;;8.98;;
47531;SDS011;33273;52.254;7.988;2023-05-08T03:48:32;11.85;;;8.73;;
47531;SDS011;33273;52.254;7.988;2023-05-08T03:51:03;11.20;;;8.63;;
47531;SDS011;33273;52.254;7.988;2023-05-08T03:53:32;12.30;;;9.32;;
47531;SDS011;33273;52.254;7.988;2023-05-08T04:04:16;14.60;;;9.18;;
47531;SDS011;33273;52.254;7.988;2023-05-08T04:06:54;12.30;;;8.65;;
47531;SDS011;33273;52.254;7.988;2023-05-08T04:10:27;13.88;;;9.75;;
47531;SDS011;33273;52.254;7.988;2023-05-08T04:12:37;11.65;;;8.18;;
47531;SDS011;33273;52.254;7.988;2023-05-08T04:20:09;13.57;;;10.02;;
47531;SDS011;33273;52.254;7.988;2023-05-08T04:22:39;13.20;;;9.65;;
47531;SDS011;33273;52.254;7.988;2023-05-08T04:25:07;12.65;;;9.18;;
47531;SDS011;33273;52.254;7.988;2023-05-08T04:27:37;14.02;;;9.57;;
47531;SDS011;33273;52.254;7.988;2023-05-08T04:30:03;13.10;;;9.48;;
47531;SDS011;33273;52.254;7.988;2023-05-08T04:32:32;13.02;;;9.95;;
47531;SDS011;33273;52.254;7.988;2023-05-08T04:34:59;14.82;;;10.38;;
47531;SDS011;33273;52.254;7.988;2023-05-08T04:37:27;13.00;;;9.57;;
47531;SDS011;33273;52.254;7.988;2023-05-08T04:40:00;11.93;;;8.95;;
47531;SDS011;33273;52.254;7.988;2023-05-08T04:42:27;13.60;;;8.35;;
47531;SDS011;33273;52.254;7.988;2023-05-08T04:44:57;12.68;;;9.75;;
47531;SDS011;33273;52.254;7.988;2023-05-08T04:47:24;11.03;;;8.43;;
47531;SDS011;33273;52.254;7.988;2023-05-08T04:49:51;9.93;;;7.68;;
47531;SDS011;33273;52.254;7.988;2023-05-08T04:52:17;11.73;;;8.20;;
47531;SDS011;33273;52.254;7.988;2023-05-08T04:54:43;9.85;;;7.88;;
47531;SDS011;33273;52.254;7.988;2023-05-08T04:57:09;10.63;;;7.97;;
47531;SDS011;33273;52.254;7.988;2023-05-08T04:59:35;9.85;;;7.75;;
47531;SDS011;33273;52.254;7.988;2023-05-08T05:02:01;9.93;;;8.02;;
47531;SDS011;33273;52.254;7.988;2023-05-08T05:04:30;12.68;;;9.18;;
47531;SDS011;33273;52.254;7.988;2023-05-08T05:06:56;10.90;;;7.35;;
47531;SDS011;33273;52.254;7.988;2023-05-08T05:09:22;12.40;;;9.27;;
47531;SDS011;33273;52.254;7.988;2023-05-08T05:11:50;10.82;;;7.07;;
47531;SDS011;33273;52.254;7.988;2023-05-08T05:14:17;8.73;;;7.40;;
47531;SDS011;33273;52.254;7.988;2023-05-08T05:16:42;10.85;;;7.47;;
47531;SDS011;33273;52.254;7.988;2023-05-08T05:19:08;10.27;;;7.80;;
47531;SDS011;33273;52.254;7.988;2023-05-08T05:21:34;11.55;;;7.75;;
47531;SDS011;33273;52.254;7.988;2023-05-08T05:24:03;11.27;;;7.68;;
47531;SDS011;33273;52.254;7.988;2023-05-08T05:26:30;9.38;;;7.65;;
47531;SDS011;33273;52.254;7.988;2023-05-08T05:28:56;10.30;;;7.32;;
47531;SDS011;33273;52.254;7.988;2023-05-08T05:31:24;8.98;;;6.82;;
47531;SDS011;33273;52.254;7.988;2023-05-08T05:33:50;8.63;;;7.72;;
47531;SDS011;33273;52.254;7.988;2023-05-08T05:36:16;8.75;;;7.13;;
47531;SDS011;33273;52.254;7.988;2023-05-08T05:38:42;9.35;;;7.90;;
47531;SDS011;33273;52.254;7.988;2023-05-08T05:41:08;10.48;;;8.00;;
47531;SDS011;33273;52.254;7.988;2023-05-08T05:43:34;9.85;;;7.85;;
47531;SDS011;33273;52.254;7.988;2023-05-08T05:46:05;9.35;;;7.88;;
47531;SDS011;33273;52.254;7.988;2023-05-08T05:48:32;10.73;;;7.50;;
47531;SDS011;33273;52.254;7.988;2023-05-08T05:50:58;9.73;;;7.93;;
47531;SDS011;33273;52.254;7.988;2023-05-08T05:53:26;9.75;;;8.07;;
47531;SDS011;33273;52.254;7.988;2023-05-08T05:55:53;10.48;;;8.23;;
47531;SDS011;33273;52.254;7.988;2023-05-08T05:58:19;10.82;;;7.97;;
47531;SDS011;33273;52.254;7.988;2023-05-08T06:00:45;13.05;;;8.52;;
47531;SDS011;33273;52.254;7.988;2023-05-08T06:03:12;11.27;;;7.85;;
47531;SDS011;33273;52.254;7.988;2023-05-08T06:05:39;9.02;;;6.97;;
47531;SDS011;33273;52.254;7.988;2023-05-08T06:08:05;12.50;;;8.70;;
47531;SDS011;33273;52.254;7.988;2023-05-08T06:10:31;10.63;;;8.40;;
47531;SDS011;33273;52.254;7.988;2023-05-08T06:12:57;11.93;;;8.52;;
47531;SDS011;33273;52.254;7.988;2023-05-08T06:15:24;12.27;;;9.43;;
47531;SDS011;33273;52.254;7.988;2023-05-08T06:17:51;11.63;;;7.88;;
47531;SDS011;33273;52.254;7.988;2023-05-08T06:22:44;11.02;;;8.45;;
47531;SDS011;33273;52.254;7.988;2023-05-08T06:25:10;10.27;;;7.70;;
47531;SDS011;33273;52.254;7.988;2023-05-08T06:27:37;10.07;;;8.07;;
47531;SDS011;33273;52.254;7.988;2023-05-08T06:30:03;9.90;;;7.68;;
47531;SDS011;33273;52.254;7.988;2023-05-08T06:32:32;10.70;;;7.93;;
47531;SDS011;33273;52.254;7.988;2023-05-08T06:34:58;11.27;;;8.60;;
47531;SDS011;33273;52.254;7.988;2023-05-08T06:37:23;9.70;;;8.30;;
47531;SDS011;33273;52.254;7.988;2023-05-08T06:39:49;12.07;;;8.30;;
47531;SDS011;33273;52.254;7.988;2023-05-08T06:42:15;9.83;;;7.60;;
47531;SDS011;33273;52.254;7.988;2023-05-08T06:44:44;8.90;;;7.53;;
47531;SDS011;33273;52.254;7.988;2023-05-08T06:47:10;8.85;;;7.20;;
47531;SDS011;33273;52.254;7.988;2023-05-08T06:49:36;10.02;;;7.82;;
47531;SDS011;33273;52.254;7.988;2023-05-08T06:52:01;14.50;;;7.83;;
47531;SDS011;33273;52.254;7.988;2023-05-08T06:54:28;9.65;;;7.78;;
47531;SDS011;33273;52.254;7.988;2023-05-08T06:56:53;9.32;;;7.47;;
47531;SDS011;33273;52.254;7.988;2023-05-08T06:59:20;8.75;;;7.40;;
47531;SDS011;33273;52.254;7.988;2023-05-08T07:01:47;8.38;;;7.45;;
47531;SDS011;33273;52.254;7.988;2023-05-08T07:04:13;9.23;;;7.47;;
47531;SDS011;33273;52.254;7.988;2023-05-08T07:06:40;8.20;;;7.20;;
47531;SDS011;33273;52.254;7.988;2023-05-08T07:09:06;9.13;;;7.15;;
47531;SDS011;33273;52.254;7.988;2023-05-08T07:11:34;8.77;;;7.10;;
47531;SDS011;33273;52.254;7.988;2023-05-08T07:14:00;13.00;;;7.53;;
47531;SDS011;33273;52.254;7.988;2023-05-08T07:16:26;9.77;;;8.15;;
47531;SDS011;33273;52.254;7.988;2023-05-08T07:18:52;11.57;;;7.80;;
47531;SDS011;33273;52.254;7.988;2023-05-08T07:21:18;9.98;;;7.80;;
47531;SDS011;33273;52.254;7.988;2023-05-08T07:23:45;9.27;;;7.85;;
47531;SDS011;33273;52.254;7.988;2023-05-08T07:26:13;9.18;;;7.45;;
47531;SDS011;33273;52.254;7.988;2023-05-08T07:31:05;8.57;;;7.68;;
47531;SDS011;33273;52.254;7.988;2023-05-08T07:33:31;9.32;;;7.65;;
47531;SDS011;33273;52.254;7.988;2023-05-08T07:35:59;10.13;;;8.70;;
47531;SDS011;33273;52.254;7.988;2023-05-08T07:38:25;9.85;;;7.80;;
47531;SDS011;33273;52.254;7.988;2023-05-08T07:40:51;9.77;;;7.50;;
47531;SDS011;33273;52.254;7.988;2023-05-08T07:43:21;8.00;;;7.20;;
47531;SDS011;33273;52.254;7.988;2023-05-08T07:45:55;8.60;;;7.38;;
47531;SDS011;33273;52.254;7.988;2023-05-08T07:48:21;9.50;;;7.57;;
47531;SDS011;33273;52.254;7.988;2023-05-08T07:50:51;11.93;;;8.55;;
47531;SDS011;33273;52.254;7.988;2023-05-08T07:53:16;9.95;;;8.43;;
47531;SDS011;33273;52.254;7.988;2023-05-08T07:55:45;10.93;;;7.90;;
47531;SDS011;33273;52.254;7.988;2023-05-08T07:58:11;9.02;;;7.43;;
47531;SDS011;33273;52.254;7.988;2023-05-08T08:00:43;9.70;;;7.80;;
47531;SDS011;33273;52.254;7.988;2023-05-08T08:03:14;10.65;;;8.35;;
47531;SDS011;33273;52.254;7.988;2023-05-08T08:05:40;10.15;;;8.20;;
47531;SDS011;33273;52.254;7.988;2023-05-08T08:08:06;8.60;;;7.32;;
47531;SDS011;33273;52.254;7.988;2023-05-08T08:10:32;9.20;;;8.05;;
47531;SDS011;33273;52.254;7.988;2023-05-08T08:12:58;9.70;;;7.55;;
47531;SDS011;33273;52.254;7.988;2023-05-08T08:15:26;9.48;;;7.80;;
47531;SDS011;33273;52.254;7.988;2023-05-08T08:17:53;11.13;;;8.05;;
47531;SDS011;33273;52.254;7.988;2023-05-08T08:20:19;10.70;;;8.18;;
47531;SDS011;33273;52.254;7.988;2023-05-08T08:22:45;13.25;;;8.98;;
47531;SDS011;33273;52.254;7.988;2023-05-08T08:25:11;9.75;;;8.35;;
47531;SDS011;33273;52.254;7.988;2023-05-08T08:27:37;12.15;;;8.75;;
47531;SDS011;33273;52.254;7.988;2023-05-08T08:30:03;13.70;;;9.02;;
47531;SDS011;33273;52.254;7.988;2023-05-08T08:32:30;10.20;;;8.45;;
47531;SDS011;33273;52.254;7.988;2023-05-08T08:34:55;13.02;;;9.20;;
47531;SDS011;33273;52.254;7.988;2023-05-08T08:37:21;12.27;;;9.27;;
47531;SDS011;33273;52.254;7.988;2023-05-08T08:39:50;12.35;;;9.30;;
47531;SDS011;33273;52.254;7.988;2023-05-08T08:42:16;9.23;;;8.23;;
47531;SDS011;33273;52.254;7.988;2023-05-08T08:44:42;9.85;;;7.75;;
47531;SDS011;33273;52.254;7.988;2023-05-08T08:47:09;11.70;;;8.60;;
47531;SDS011;33273;52.254;7.988;2023-05-08T08:49:47;10.98;;;8.88;;
47531;SDS011;33273;52.254;7.988;2023-05-08T08:52:31;13.15;;;9.05;;
47531;SDS011;33273;52.254;7.988;2023-05-08T08:55:00;10.23;;;8.98;;
47531;SDS011;33273;52.254;7.988;2023-05-08T08:57:31;10.63;;;9.05;;
47531;SDS011;33273;52.254;7.988;2023-05-08T09:00:01;11.73;;;8.23;;
47531;SDS011;33273;52.254;7.988;2023-05-08T09:02:29;11.90;;;8.45;;
47531;SDS011;33273;52.254;7.988;2023-05-08T09:04:56;13.30;;;8.60;;
47531;SDS011;33273;52.254;7.988;2023-05-08T09:07:25;13.77;;;8.45;;
47531;SDS011;33273;52.254;7.988;2023-05-08T09:09:59;10.07;;;8.02;;
47531;SDS011;33273;52.254;7.988;2023-05-08T09:12:26;10.02;;;7.95;;
47531;SDS011;33273;52.254;7.988;2023-05-08T09:14:51;10.77;;;8.07;;
47531;SDS011;33273;52.254;7.988;2023-05-08T09:17:17;10.07;;;8.98;;
47531;SDS011;33273;52.254;7.988;2023-05-08T09:19:43;9.55;;;7.82;;
47531;SDS011;33273;52.254;7.988;2023-05-08T09:22:09;10.55;;;8.60;;
47531;SDS011;33273;52.254;7.988;2023-05-08T09:27:29;11.10;;;9.10;;
47531;SDS011;33273;52.254;7.988;2023-05-08T09:29:59;11.82;;;9.00;;
47531;SDS011;33273;52.254;7.988;2023-05-08T09:32:30;11.02;;;9.18;;
47531;SDS011;33273;52.254;7.988;2023-05-08T09:34:58;9.10;;;7.90;;
47531;SDS011;33273;52.254;7.988;2023-05-08T09:37:25;13.50;;;9.00;;
47531;SDS011;33273;52.254;7.988;2023-05-08T09:39:52;11.80;;;9.50;;
47531;SDS011;33273;52.254;7.988;2023-05-08T09:42:18;11.60;;;9.00;;
47531;SDS011;33273;52.254;7.988;2023-05-08T09:44:49;14.25;;;9.60;;
47531;SDS011;33273;52.254;7.988;2023-05-08T09:49:57;11.98;;;9.23;;
47531;SDS011;33273;52.254;7.988;2023-05-08T09:52:24;12.23;;;9.05;;
47531;SDS011;33273;52.254;7.988;2023-05-08T09:57:28;10.73;;;8.63;;
47531;SDS011;33273;52.254;7.988;2023-05-08T10:00:11;11.15;;;8.82;;
47531;SDS011;33273;52.254;7.988;2023-05-08T10:02:39;9.57;;;8.38;;
47531;SDS011;33273;52.254;7.988;2023-05-08T10:05:23;11.00;;;9.20;;
47531;SDS011;33273;52.254;7.988;2023-05-08T10:07:51;10.95;;;8.20;;
47531;SDS011;33273;52.254;7.988;2023-05-08T10:10:27;11.05;;;8.75;;
47531;SDS011;33273;52.254;7.988;2023-05-08T10:12:56;9.85;;;8.38;;
47531;SDS011;33273;52.254;7.988;2023-05-08T10:15:29;10.18;;;8.45;;
47531;SDS011;33273;52.254;7.988;2023-05-08T10:18:03;10.43;;;8.65;;
47531;SDS011;33273;52.254;7.988;2023-05-08T10:20:32;12.02;;;8.98;;
47531;SDS011;33273;52.254;7.988;2023-05-08T10:22:59;10.60;;;9.40;;
47531;SDS011;33273;52.254;7.988;2023-05-08T10:25:29;12.23;;;10.38;;
47531;SDS011;33273;52.254;7.988;2023-05-08T10:28:17;11.02;;;9.82;;
47531;SDS011;33273;52.254;7.988;2023-05-08T10:31:05;17.40;;;10.55;;
47531;SDS011;33273;52.254;7.988;2023-05-08T10:33:33;11.35;;;9.15;;
47531;SDS011;33273;52.254;7.988;2023-05-08T10:36:02;13.20;;;10.13;;
47531;SDS011;33273;52.254;7.988;2023-05-08T10:38:29;12.30;;;8.95;;
47531;SDS011;33273;52.254;7.988;2023-05-08T10:43:24;13.00;;;10.10;;
47531;SDS011;33273;52.254;7.988;2023-05-08T10:51:07;13.90;;;10.85;;
47531;SDS011;33273;52.254;7.988;2023-05-08T10:53:54;12.38;;;10.18;;
47531;SDS011;33273;52.254;7.988;2023-05-08T10:56:27;11.13;;;9.13;;
47531;SDS011;33273;52.254;7.988;2023-05-08T10:58:57;15.52;;;12.05;;
47531;SDS011;33273;52.254;7.988;2023-05-08T11:01:23;16.90;;;12.95;;
47531;SDS011;33273;52.254;7.988;2023-05-08T11:03:50;16.90;;;12.15;;
47531;SDS011;33273;52.254;7.988;2023-05-08T11:09:19;14.07;;;11.43;;
47531;SDS011;33273;52.254;7.988;2023-05-08T11:11:50;14.82;;;10.82;;
47531;SDS011;33273;52.254;7.988;2023-05-08T11:14:33;13.82;;;11.00;;
47531;SDS011;33273;52.254;7.988;2023-05-08T11:17:02;14.13;;;10.55;;
47531;SDS011;33273;52.254;7.988;2023-05-08T11:19:28;13.68;;;10.32;;
47531;SDS011;33273;52.254;7.988;2023-05-08T11:24:58;12.10;;;9.13;;
47531;SDS011;33273;52.254;7.988;2023-05-08T11:38:38;14.30;;;10.90;;
47531;SDS011;33273;52.254;7.988;2023-05-08T11:48:33;13.43;;;10.50;;
47531;SDS011;33273;52.254;7.988;2023-05-08T11:50:59;13.95;;;10.65;;
47531;SDS011;33273;52.254;7.988;2023-05-08T11:53:27;12.73;;;9.32;;
47531;SDS011;33273;52.254;7.988;2023-05-08T11:55:54;13.32;;;9.27;;
47531;SDS011;33273;52.254;7.988;2023-05-08T11:58:21;11.05;;;8.23;;
47531;SDS011;33273;52.254;7.988;2023-05-08T12:00:48;13.25;;;9.90;;
47531;SDS011;33273;52.254;7.988;2023-05-08T12:03:15;13.05;;;10.48;;
47531;SDS011;33273;52.254;7.988;2023-05-08T12:05:43;14.10;;;9.38;;
47531;SDS011;33273;52.254;7.988;2023-05-08T12:08:10;12.15;;;9.40;;
47531;SDS011;33273;52.254;7.988;2023-05-08T12:10:53;14.77;;;10.15;;
47531;SDS011;33273;52.254;7.988;2023-05-08T12:13:22;14.02;;;11.25;;
47531;SDS011;33273;52.254;7.988;2023-05-08T12:15:59;15.63;;;11.23;;
47531;SDS011;33273;52.254;7.988;2023-05-08T12:18:26;13.45;;;9.20;;
47531;SDS011;33273;52.254;7.988;2023-05-08T12:20:55;11.65;;;8.70;;
47531;SDS011;33273;52.254;7.988;2023-05-08T12:23:23;13.00;;;9.15;;
47531;SDS011;33273;52.254;7.988;2023-05-08T12:25:50;12.90;;;9.15;;
47531;SDS011;33273;52.254;7.988;2023-05-08T12:28:19;12.40;;;9.90;;
47531;SDS011;33273;52.254;7.988;2023-05-08T12:30:45;11.57;;;9.45;;
47531;SDS011;33273;52.254;7.988;2023-05-08T12:33:12;11.85;;;9.43;;
47531;SDS011;33273;52.254;7.988;2023-05-08T12:35:39;13.90;;;9.73;;
47531;SDS011;33273;52.254;7.988;2023-05-08T12:38:06;14.40;;;10.52;;
47531;SDS011;33273;52.254;7.988;2023-05-08T12:40:34;12.95;;;9.77;;
47531;SDS011;33273;52.254;7.988;2023-05-08T12:43:11;14.95;;;10.07;;
47531;SDS011;33273;52.254;7.988;2023-05-08T12:45:41;14.75;;;9.52;;
47531;SDS011;33273;52.254;7.988;2023-05-08T12:48:11;12.07;;;8.60;;
47531;SDS011;33273;52.254;7.988;2023-05-08T12:50:43;12.85;;;9.77;;
47531;SDS011;33273;52.254;7.988;2023-05-08T12:53:10;13.07;;;10.38;;
47531;SDS011;33273;52.254;7.988;2023-05-08T12:55:52;12.68;;;9.98;;
47531;SDS011;33273;52.254;7.988;2023-05-08T12:58:20;13.07;;;9.65;;
47531;SDS011;33273;52.254;7.988;2023-05-08T13:00:50;13.32;;;9.40;;
47531;SDS011;33273;52.254;7.988;2023-05-08T13:03:21;12.15;;;9.00;;
47531;SDS011;33273;52.254;7.988;2023-05-08T13:05:51;11.40;;;8.50;;
47531;SDS011;33273;52.254;7.988;2023-05-08T13:08:18;11.32;;;8.07;;
47531;SDS011;33273;52.254;7.988;2023-05-08T13:13:15;11.80;;;8.35;;
47531;SDS011;33273;52.254;7.988;2023-05-08T13:15:46;11.05;;;8.73;;
47531;SDS011;33273;52.254;7.988;2023-05-08T13:18:13;12.27;;;8.65;;
47531;SDS011;33273;52.254;7.988;2023-05-08T13:20:39;12.20;;;8.90;;
47531;SDS011;33273;52.254;7.988;2023-05-08T13:23:05;12.32;;;8.65;;
47531;SDS011;33273;52.254;7.988;2023-05-08T13:25:32;9.50;;;7.43;;
47531;SDS011;33273;52.254;7.988;2023-05-08T13:27:59;10.40;;;8.23;;
47531;SDS011;33273;52.254;7.988;2023-05-08T13:30:25;10.18;;;7.38;;
47531;SDS011;33273;52.254;7.988;2023-05-08T13:32:52;10.10;;;6.50;;
47531;SDS011;33273;52.254;7.988;2023-05-08T13:35:18;9.85;;;6.78;;
47531;SDS011;33273;52.254;7.988;2023-05-08T13:37:45;8.32;;;6.97;;
47531;SDS011;33273;52.254;7.988;2023-05-08T13:40:11;7.47;;;6.50;;
47531;SDS011;33273;52.254;7.988;2023-05-08T13:42:38;8.27;;;6.82;;
47531;SDS011;33273;52.254;7.988;2023-05-08T13:47:31;11.27;;;7.30;;
47531;SDS011;33273;52.254;7.988;2023-05-08T13:49:57;9.65;;;6.53;;
47531;SDS011;33273;52.254;7.988;2023-05-08T13:52:24;8.85;;;6.85;;
47531;SDS011;33273;52.254;7.988;2023-05-08T13:54:50;7.75;;;6.55;;
47531;SDS011;33273;52.254;7.988;2023-05-08T13:57:15;8.45;;;6.63;;
47531;SDS011;33273;52.254;7.988;2023-05-08T13:59:43;6.95;;;5.82;;
47531;SDS011;33273;52.254;7.988;2023-05-08T14:02:09;9.77;;;6.07;;
47531;SDS011;33273;52.254;7.988;2023-05-08T14:04:34;8.25;;;5.32;;
47531;SDS011;33273;52.254;7.988;2023-05-08T14:07:00;6.85;;;5.55;;
47531;SDS011;33273;52.254;7.988;2023-05-08T14:09:26;8.57;;;4.97;;
47531;SDS011;33273;52.254;7.988;2023-05-08T14:11:53;7.15;;;5.25;;
47531;SDS011;33273;52.254;7.988;2023-05-08T14:14:19;7.72;;;5.32;;
47531;SDS011;33273;52.254;7.988;2023-05-08T14:16:45;7.80;;;5.55;;
47531;SDS011;33273;52.254;7.988;2023-05-08T14:19:12;8.13;;;5.18;;
47531;SDS011;33273;52.254;7.988;2023-05-08T14:21:38;6.80;;;4.97;;
47531;SDS011;33273;52.254;7.988;2023-05-08T14:26:30;7.00;;;5.53;;
47531;SDS011;33273;52.254;7.988;2023-05-08T14:28:56;9.70;;;5.20;;
47531;SDS011;33273;52.254;7.988;2023-05-08T14:31:22;8.50;;;5.85;;
47531;SDS011;33273;52.254;7.988;2023-05-08T14:33:48;8.38;;;5.60;;
47531;SDS011;33273;52.254;7.988;2023-05-08T14:36:14;7.53;;;5.35;;
47531;SDS011;33273;52.254;7.988;2023-05-08T14:38:39;7.78;;;5.30;;
47531;SDS011;33273;52.254;7.988;2023-05-08T14:41:05;6.68;;;5.30;;
47531;SDS011;33273;52.254;7.988;2023-05-08T14:43:31;6.53;;;5.07;;
47531;SDS011;33273;52.254;7.988;2023-05-08T14:48:24;7.32;;;4.75;;
47531;SDS011;33273;52.254;7.988;2023-05-08T14:50:51;5.32;;;4.20;;
47531;SDS011;33273;52.254;7.988;2023-05-08T14:53:17;5.25;;;4.05;;
47531;SDS011;33273;52.254;7.988;2023-05-08T14:55:43;5.80;;;3.70;;
47531;SDS011;33273;52.254;7.988;2023-05-08T14:58:09;6.35;;;4.13;;
47531;SDS011;33273;52.254;7.988;2023-05-08T15:00:35;5.47;;;3.95;;
47531;SDS011;33273;52.254;7.988;2023-05-08T15:03:01;5.53;;;3.90;;
47531;SDS011;33273;52.254;7.988;2023-05-08T15:05:27;6.20;;;3.90;;
47531;SDS011;33273;52.254;7.988;2023-05-08T15:07:53;4.47;;;3.35;;
47531;SDS011;33273;52.254;7.988;2023-05-08T15:10:19;5.20;;;3.83;;
47531;SDS011;33273;52.254;7.988;2023-05-08T15:12:44;6.43;;;3.58;;
47531;SDS011;33273;52.254;7.988;2023-05-08T15:15:10;4.53;;;3.40;;
47531;SDS011;33273;52.254;7.988;2023-05-08T15:17:36;4.85;;;3.72;;
47531;SDS011;33273;52.254;7.988;2023-05-08T15:20:05;5.82;;;3.47;;
47531;SDS011;33273;52.254;7.988;2023-05-08T15:22:32;5.45;;;3.65;;
47531;SDS011;33273;52.254;7.988;2023-05-08T15:24:59;4.78;;;3.75;;
47531;SDS011;33273;52.254;7.988;2023-05-08T15:27:27;6.93;;;3.85;;
47531;SDS011;33273;52.254;7.988;2023-05-08T15:29:53;5.75;;;4.32;;
47531;SDS011;33273;52.254;7.988;2023-05-08T15:34:46;5.75;;;3.75;;
47531;SDS011;33273;52.254;7.988;2023-05-08T15:37:12;5.43;;;3.70;;
47531;SDS011;33273;52.254;7.988;2023-05-08T15:39:38;4.22;;;3.00;;
47531;SDS011;33273;52.254;7.988;2023-05-08T15:42:04;4.05;;;2.75;;
47531;SDS011;33273;52.254;7.988;2023-05-08T15:44:30;4.78;;;2.67;;
47531;SDS011;33273;52.254;7.988;2023-05-08T15:49:22;3.83;;;2.10;;
47531;SDS011;33273;52.254;7.988;2023-05-08T15:51:50;4.07;;;2.40;;
47531;SDS011;33273;52.254;7.988;2023-05-08T15:54:16;3.95;;;2.70;;
47531;SDS011;33273;52.254;7.988;2023-05-08T15:56:42;3.53;;;2.67;;
47531;SDS011;33273;52.254;7.988;2023-05-08T15:59:10;4.68;;;3.35;;
47531;SDS011;33273;52.254;7.988;2023-05-08T16:01:39;5.47;;;3.50;;
47531;SDS011;33273;52.254;7.988;2023-05-08T16:04:06;5.95;;;3.53;;
47531;SDS011;33273;52.254;7.988;2023-05-08T16:08:58;5.97;;;3.75;;
47531;SDS011;33273;52.254;7.988;2023-05-08T16:11:25;6.15;;;3.80;;
47531;SDS011;33273;52.254;7.988;2023-05-08T16:13:55;5.93;;;3.97;;
47531;SDS011;33273;52.254;7.988;2023-05-08T16:16:22;5.30;;;3.90;;
47531;SDS011;33273;52.254;7.988;2023-05-08T16:18:49;5.53;;;4.40;;
47531;SDS011;33273;52.254;7.988;2023-05-08T16:21:15;6.70;;;4.72;;
47531;SDS011;33273;52.254;7.988;2023-05-08T16:23:41;5.40;;;3.10;;
47531;SDS011;33273;52.254;7.988;2023-05-08T16:26:07;3.90;;;2.70;;
47531;SDS011;33273;52.254;7.988;2023-05-08T16:28:33;5.43;;;2.97;;
47531;SDS011;33273;52.254;7.988;2023-05-08T16:31:01;3.78;;;2.45;;